sensor_id;sensor_type;location;lat;lon;timestamp;P1;durP1;ratioP1;P2;durP2;ratioP2
13590;SDS011;6866;50.778;7.206;2023-04-02T00:08:59;4.45;;;1.70;;
13590;SDS011;6866;50.778;7.206;2023-04-02T00:11:47;6.22;;;2.03;;
13590;SDS011;6866;50.778;7.206;2023-04-02T00:14:29;8.65;;;1.90;;
13590;SDS011;6866;50.778;7.206;2023-04-02T00:16:57;4.57;;;2.20;;
13590;SDS011;6866;50.778;7.206;2023-04-02T00:22:08;5.30;;;2.72;;
13590;SDS011;6866;50.778;7.206;2023-04-02T00:24:53;4.03;;;2.22;;
13590;SDS011;6866;50.778;7.206;2023-04-02T00:27:20;4.00;;;2.20;;
13590;SDS011;6866;50.778;7.206;2023-04-02T00:29:50;6.43;;;2.65;;
13590;SDS011;6866;50.778;7.206;2023-04-02T00:32:19;7.07;;;2.83;;
13590;SDS011;6866;50.778;7.206;2023-04-02T00:34:58;4.67;;;2.50;;
13590;SDS011;6866;50.778;7.206;2023-04-02T00:37:29;4.13;;;2.85;;
13590;SDS011;6866;50.778;7.206;2023-04-02T00:40:06;5.38;;;3.13;;
13590;SDS011;6866;50.778;7.206;2023-04-02T00:42:49;6.10;;;3.40;;
13590;SDS011;6866;50.778;7.206;2023-04-02T00:47:53;5.78;;;3.60;;
13590;SDS011;6866;50.778;7.206;2023-04-02T00:50:30;6.70;;;3.53;;
13590;SDS011;6866;50.778;7.206;2023-04-02T00:52:58;5.32;;;3.70;;
13590;SDS011;6866;50.778;7.206;2023-04-02T00:55:34;5.03;;;3.60;;
13590;SDS011;6866;50.778;7.206;2023-04-02T00:58:01;9.43;;;3.75;;
13590;SDS011;6866;50.778;7.206;2023-04-02T01:05:35;5.35;;;3.42;;
13590;SDS011;6866;50.778;7.206;2023-04-02T01:08:13;5.05;;;3.42;;
13590;SDS011;6866;50.778;7.206;2023-04-02T01:10:49;6.57;;;3.22;;
13590;SDS011;6866;50.778;7.206;2023-04-02T01:13:35;4.70;;;2.92;;
13590;SDS011;6866;50.778;7.206;2023-04-02T01:18:42;5.25;;;3.78;;
13590;SDS011;6866;50.778;7.206;2023-04-02T01:24:06;7.88;;;4.80;;
13590;SDS011;6866;50.778;7.206;2023-04-02T01:31:51;7.28;;;4.32;;
13590;SDS011;6866;50.778;7.206;2023-04-02T01:34:21;7.82;;;4.80;;
13590;SDS011;6866;50.778;7.206;2023-04-02T01:36:52;9.13;;;4.97;;
13590;SDS011;6866;50.778;7.206;2023-04-02T01:42:53;6.75;;;4.82;;
13590;SDS011;6866;50.778;7.206;2023-04-02T01:45:27;6.95;;;4.32;;
13590;SDS011;6866;50.778;7.206;2023-04-02T01:47:54;5.47;;;4.25;;
13590;SDS011;6866;50.778;7.206;2023-04-02T01:53:03;8.32;;;4.70;;
13590;SDS011;6866;50.778;7.206;2023-04-02T01:58:11;8.55;;;4.50;;
13590;SDS011;6866;50.778;7.206;2023-04-02T02:00:45;5.90;;;4.30;;
13590;SDS011;6866;50.778;7.206;2023-04-02T02:03:17;6.15;;;4.45;;
13590;SDS011;6866;50.778;7.206;2023-04-02T02:05:43;6.38;;;4.80;;
13590;SDS011;6866;50.778;7.206;2023-04-02T02:08:33;7.03;;;4.70;;
13590;SDS011;6866;50.778;7.206;2023-04-02T02:11:03;6.43;;;4.90;;
13590;SDS011;6866;50.778;7.206;2023-04-02T02:13:29;5.55;;;3.95;;
13590;SDS011;6866;50.778;7.206;2023-04-02T02:15:59;6.88;;;4.70;;
13590;SDS011;6866;50.778;7.206;2023-04-02T02:18:27;8.40;;;4.63;;
13590;SDS011;6866;50.778;7.206;2023-04-02T02:20:53;8.98;;;4.20;;
13590;SDS011;6866;50.778;7.206;2023-04-02T02:23:22;8.40;;;3.83;;
13590;SDS011;6866;50.778;7.206;2023-04-02T02:25:48;8.20;;;4.22;;
13590;SDS011;6866;50.778;7.206;2023-04-02T02:28:24;6.93;;;3.60;;
13590;SDS011;6866;50.778;7.206;2023-04-02T02:30:57;5.70;;;3.90;;
13590;SDS011;6866;50.778;7.206;2023-04-02T02:33:30;6.63;;;3.75;;
13590;SDS011;6866;50.778;7.206;2023-04-02T02:41:38;8.15;;;3.80;;
13590;SDS011;6866;50.778;7.206;2023-04-02T02:46:34;5.63;;;3.42;;
13590;SDS011;6866;50.778;7.206;2023-04-02T02:49:04;5.63;;;3.70;;
13590;SDS011;6866;50.778;7.206;2023-04-02T02:51:38;6.72;;;3.80;;
13590;SDS011;6866;50.778;7.206;2023-04-02T02:54:08;6.30;;;3.90;;
13590;SDS011;6866;50.778;7.206;2023-04-02T02:56:34;6.20;;;3.85;;
13590;SDS011;6866;50.778;7.206;2023-04-02T02:59:04;6.93;;;4.10;;
13590;SDS011;6866;50.778;7.206;2023-04-02T03:01:33;6.10;;;4.00;;
13590;SDS011;6866;50.778;7.206;2023-04-02T03:03:58;6.55;;;3.85;;
13590;SDS011;6866;50.778;7.206;2023-04-02T03:06:24;7.53;;;4.60;;
13590;SDS011;6866;50.778;7.206;2023-04-02T03:09:02;6.55;;;4.50;;
13590;SDS011;6866;50.778;7.206;2023-04-02T03:11:57;7.57;;;5.40;;
13590;SDS011;6866;50.778;7.206;2023-04-02T03:14:47;8.45;;;5.90;;
13590;SDS011;6866;50.778;7.206;2023-04-02T03:17:26;8.60;;;5.72;;
13590;SDS011;6866;50.778;7.206;2023-04-02T03:20:00;7.65;;;5.82;;
13590;SDS011;6866;50.778;7.206;2023-04-02T03:22:38;10.20;;;6.80;;
13590;SDS011;6866;50.778;7.206;2023-04-02T03:25:43;10.43;;;6.78;;
13590;SDS011;6866;50.778;7.206;2023-04-02T03:28:06;10.02;;;6.63;;
13590;SDS011;6866;50.778;7.206;2023-04-02T03:30:41;9.50;;;6.20;;
13590;SDS011;6866;50.778;7.206;2023-04-02T03:35:58;7.60;;;4.93;;
13590;SDS011;6866;50.778;7.206;2023-04-02T03:38:35;5.28;;;3.40;;
13590;SDS011;6866;50.778;7.206;2023-04-02T03:41:15;4.80;;;3.38;;
13590;SDS011;6866;50.778;7.206;2023-04-02T03:43:53;4.68;;;3.03;;
13590;SDS011;6866;50.778;7.206;2023-04-02T03:46:33;5.10;;;2.80;;
13590;SDS011;6866;50.778;7.206;2023-04-02T03:49:08;4.13;;;2.60;;
13590;SDS011;6866;50.778;7.206;2023-04-02T03:54:25;8.32;;;2.45;;
13590;SDS011;6866;50.778;7.206;2023-04-02T03:56:51;4.00;;;2.50;;
13590;SDS011;6866;50.778;7.206;2023-04-02T03:59:29;3.33;;;2.35;;
13590;SDS011;6866;50.778;7.206;2023-04-02T04:02:11;3.53;;;2.53;;
13590;SDS011;6866;50.778;7.206;2023-04-02T04:04:50;4.53;;;2.40;;
13590;SDS011;6866;50.778;7.206;2023-04-02T04:07:28;3.78;;;2.58;;
13590;SDS011;6866;50.778;7.206;2023-04-02T04:09:58;5.78;;;2.63;;
13590;SDS011;6866;50.778;7.206;2023-04-02T04:12:35;3.75;;;2.80;;
13590;SDS011;6866;50.778;7.206;2023-04-02T04:15:07;5.70;;;2.35;;
13590;SDS011;6866;50.778;7.206;2023-04-02T04:21:12;3.95;;;2.90;;
13590;SDS011;6866;50.778;7.206;2023-04-02T04:23:30;3.95;;;2.70;;
13590;SDS011;6866;50.778;7.206;2023-04-02T04:26:02;5.13;;;3.20;;
13590;SDS011;6866;50.778;7.206;2023-04-02T04:28:43;4.25;;;3.13;;
13590;SDS011;6866;50.778;7.206;2023-04-02T04:31:34;4.97;;;3.28;;
13590;SDS011;6866;50.778;7.206;2023-04-02T04:34:19;5.85;;;3.40;;
13590;SDS011;6866;50.778;7.206;2023-04-02T04:36:54;5.50;;;3.63;;
13590;SDS011;6866;50.778;7.206;2023-04-02T04:41:58;4.72;;;3.38;;
13590;SDS011;6866;50.778;7.206;2023-04-02T04:44:36;4.55;;;3.63;;
13590;SDS011;6866;50.778;7.206;2023-04-02T04:47:12;4.55;;;3.33;;
13590;SDS011;6866;50.778;7.206;2023-04-02T04:49:43;5.97;;;3.30;;
13590;SDS011;6866;50.778;7.206;2023-04-02T04:52:20;5.43;;;3.20;;
13590;SDS011;6866;50.778;7.206;2023-04-02T04:54:53;6.13;;;3.72;;
13590;SDS011;6866;50.778;7.206;2023-04-02T04:57:35;6.53;;;3.20;;
13590;SDS011;6866;50.778;7.206;2023-04-02T05:00:09;5.38;;;3.13;;
13590;SDS011;6866;50.778;7.206;2023-04-02T05:05:27;5.28;;;3.35;;
13590;SDS011;6866;50.778;7.206;2023-04-02T05:07:59;5.20;;;3.50;;
13590;SDS011;6866;50.778;7.206;2023-04-02T05:10:50;6.05;;;3.35;;
13590;SDS011;6866;50.778;7.206;2023-04-02T05:16:22;4.10;;;3.00;;
13590;SDS011;6866;50.778;7.206;2023-04-02T05:25:12;5.18;;;3.90;;
13590;SDS011;6866;50.778;7.206;2023-04-02T05:27:50;4.88;;;3.65;;
13590;SDS011;6866;50.778;7.206;2023-04-02T05:32:54;5.13;;;3.92;;
13590;SDS011;6866;50.778;7.206;2023-04-02T05:35:30;4.72;;;3.63;;
13590;SDS011;6866;50.778;7.206;2023-04-02T05:37:58;5.50;;;3.67;;
13590;SDS011;6866;50.778;7.206;2023-04-02T05:40:30;4.85;;;3.65;;
13590;SDS011;6866;50.778;7.206;2023-04-02T05:43:02;4.50;;;3.17;;
13590;SDS011;6866;50.778;7.206;2023-04-02T05:45:37;4.80;;;3.33;;
13590;SDS011;6866;50.778;7.206;2023-04-02T05:48:15;4.78;;;3.47;;
13590;SDS011;6866;50.778;7.206;2023-04-02T05:50:45;5.63;;;3.70;;
13590;SDS011;6866;50.778;7.206;2023-04-02T05:53:20;4.72;;;3.63;;
13590;SDS011;6866;50.778;7.206;2023-04-02T05:55:50;4.88;;;3.40;;
13590;SDS011;6866;50.778;7.206;2023-04-02T06:01:20;3.15;;;2.05;;
13590;SDS011;6866;50.778;7.206;2023-04-02T06:04:02;3.72;;;2.30;;
13590;SDS011;6866;50.778;7.206;2023-04-02T06:06:45;5.90;;;3.75;;
13590;SDS011;6866;50.778;7.206;2023-04-02T06:09:16;4.50;;;2.70;;
13590;SDS011;6866;50.778;7.206;2023-04-02T06:11:49;4.47;;;3.40;;
13590;SDS011;6866;50.778;7.206;2023-04-02T06:14:23;6.63;;;3.88;;
13590;SDS011;6866;50.778;7.206;2023-04-02T06:16:49;5.38;;;3.70;;
13590;SDS011;6866;50.778;7.206;2023-04-02T06:19:17;5.18;;;3.90;;
13590;SDS011;6866;50.778;7.206;2023-04-02T06:21:48;5.03;;;3.63;;
13590;SDS011;6866;50.778;7.206;2023-04-02T06:24:17;7.07;;;3.38;;
13590;SDS011;6866;50.778;7.206;2023-04-02T06:26:48;6.85;;;3.88;;
13590;SDS011;6866;50.778;7.206;2023-04-02T06:29:28;4.40;;;2.90;;
13590;SDS011;6866;50.778;7.206;2023-04-02T06:32:02;4.45;;;3.00;;
13590;SDS011;6866;50.778;7.206;2023-04-02T06:34:29;4.57;;;2.97;;
13590;SDS011;6866;50.778;7.206;2023-04-02T06:36:57;3.20;;;2.20;;
13590;SDS011;6866;50.778;7.206;2023-04-02T06:39:26;3.00;;;2.15;;
13590;SDS011;6866;50.778;7.206;2023-04-02T06:41:53;3.33;;;1.85;;
13590;SDS011;6866;50.778;7.206;2023-04-02T06:44:34;2.40;;;1.50;;
13590;SDS011;6866;50.778;7.206;2023-04-02T06:49:46;1.65;;;0.85;;
13590;SDS011;6866;50.778;7.206;2023-04-02T06:52:33;3.22;;;1.00;;
13590;SDS011;6866;50.778;7.206;2023-04-02T06:55:06;2.85;;;1.00;;
13590;SDS011;6866;50.778;7.206;2023-04-02T06:57:49;1.92;;;1.02;;
13590;SDS011;6866;50.778;7.206;2023-04-02T07:00:21;1.73;;;1.00;;
13590;SDS011;6866;50.778;7.206;2023-04-02T07:03:05;4.78;;;1.20;;
13590;SDS011;6866;50.778;7.206;2023-04-02T07:05:37;1.80;;;0.80;;
13590;SDS011;6866;50.778;7.206;2023-04-02T07:08:02;2.03;;;0.95;;
13590;SDS011;6866;50.778;7.206;2023-04-02T07:10:28;1.48;;;0.90;;
13590;SDS011;6866;50.778;7.206;2023-04-02T07:12:54;2.38;;;0.90;;
13590;SDS011;6866;50.778;7.206;2023-04-02T07:15:19;2.33;;;0.98;;
13590;SDS011;6866;50.778;7.206;2023-04-02T07:17:47;1.63;;;0.93;;
13590;SDS011;6866;50.778;7.206;2023-04-02T07:20:21;1.52;;;0.80;;
13590;SDS011;6866;50.778;7.206;2023-04-02T07:22:48;1.13;;;0.57;;
13590;SDS011;6866;50.778;7.206;2023-04-02T07:25:13;1.00;;;0.60;;
13590;SDS011;6866;50.778;7.206;2023-04-02T07:27:39;1.98;;;0.75;;
13590;SDS011;6866;50.778;7.206;2023-04-02T07:30:05;2.30;;;0.60;;
13590;SDS011;6866;50.778;7.206;2023-04-02T07:32:31;1.95;;;0.80;;
13590;SDS011;6866;50.778;7.206;2023-04-02T07:34:57;2.00;;;1.00;;
13590;SDS011;6866;50.778;7.206;2023-04-02T07:37:22;2.17;;;0.80;;
13590;SDS011;6866;50.778;7.206;2023-04-02T07:39:48;1.52;;;0.63;;
13590;SDS011;6866;50.778;7.206;2023-04-02T07:42:13;1.35;;;0.70;;
13590;SDS011;6866;50.778;7.206;2023-04-02T07:44:39;1.30;;;0.65;;
13590;SDS011;6866;50.778;7.206;2023-04-02T07:47:05;1.20;;;0.70;;
13590;SDS011;6866;50.778;7.206;2023-04-02T07:49:31;1.85;;;0.80;;
13590;SDS011;6866;50.778;7.206;2023-04-02T07:51:56;1.15;;;0.60;;
13590;SDS011;6866;50.778;7.206;2023-04-02T07:54:22;1.67;;;0.77;;
13590;SDS011;6866;50.778;7.206;2023-04-02T07:56:47;1.42;;;0.60;;
13590;SDS011;6866;50.778;7.206;2023-04-02T07:59:13;1.23;;;0.70;;
13590;SDS011;6866;50.778;7.206;2023-04-02T08:01:38;1.25;;;0.70;;
13590;SDS011;6866;50.778;7.206;2023-04-02T08:04:08;1.45;;;0.60;;
13590;SDS011;6866;50.778;7.206;2023-04-02T08:06:44;1.30;;;0.65;;
13590;SDS011;6866;50.778;7.206;2023-04-02T08:09:11;1.20;;;0.60;;
13590;SDS011;6866;50.778;7.206;2023-04-02T08:11:37;1.98;;;0.68;;
13590;SDS011;6866;50.778;7.206;2023-04-02T08:14:04;0.88;;;0.52;;
13590;SDS011;6866;50.778;7.206;2023-04-02T08:16:42;0.60;;;0.50;;
13590;SDS011;6866;50.778;7.206;2023-04-02T08:19:18;1.40;;;0.65;;
13590;SDS011;6866;50.778;7.206;2023-04-02T08:21:44;1.70;;;0.70;;
13590;SDS011;6866;50.778;7.206;2023-04-02T08:24:09;0.77;;;0.50;;
13590;SDS011;6866;50.778;7.206;2023-04-02T08:26:35;1.08;;;0.60;;
13590;SDS011;6866;50.778;7.206;2023-04-02T08:29:01;1.20;;;0.60;;
13590;SDS011;6866;50.778;7.206;2023-04-02T08:31:26;1.50;;;0.65;;
13590;SDS011;6866;50.778;7.206;2023-04-02T08:33:52;1.20;;;0.60;;
13590;SDS011;6866;50.778;7.206;2023-04-02T08:36:23;0.95;;;0.60;;
13590;SDS011;6866;50.778;7.206;2023-04-02T08:38:56;1.60;;;0.80;;
13590;SDS011;6866;50.778;7.206;2023-04-02T08:41:23;4.15;;;1.63;;
13590;SDS011;6866;50.778;7.206;2023-04-02T08:46:49;3.60;;;1.80;;
13590;SDS011;6866;50.778;7.206;2023-04-02T08:49:28;3.22;;;2.03;;
13590;SDS011;6866;50.778;7.206;2023-04-02T08:51:59;3.10;;;1.90;;
13590;SDS011;6866;50.778;7.206;2023-04-02T08:54:26;4.05;;;2.75;;
13590;SDS011;6866;50.778;7.206;2023-04-02T08:56:59;3.65;;;2.22;;
13590;SDS011;6866;50.778;7.206;2023-04-02T08:59:51;2.40;;;1.30;;
13590;SDS011;6866;50.778;7.206;2023-04-02T09:02:30;1.67;;;0.93;;
13590;SDS011;6866;50.778;7.206;2023-04-02T09:05:04;2.05;;;0.90;;
13590;SDS011;6866;50.778;7.206;2023-04-02T09:07:31;5.28;;;0.90;;
13590;SDS011;6866;50.778;7.206;2023-04-02T09:09:58;1.48;;;0.77;;
13590;SDS011;6866;50.778;7.206;2023-04-02T09:12:26;1.95;;;0.90;;
13590;SDS011;6866;50.778;7.206;2023-04-02T09:17:26;1.88;;;0.90;;
13590;SDS011;6866;50.778;7.206;2023-04-02T09:19:55;2.65;;;1.20;;
13590;SDS011;6866;50.778;7.206;2023-04-02T09:22:28;2.92;;;1.10;;
13590;SDS011;6866;50.778;7.206;2023-04-02T09:24:56;2.42;;;1.15;;
13590;SDS011;6866;50.778;7.206;2023-04-02T09:27:35;1.77;;;1.00;;
13590;SDS011;6866;50.778;7.206;2023-04-02T09:32:47;3.03;;;1.00;;
13590;SDS011;6866;50.778;7.206;2023-04-02T09:35:19;2.00;;;1.10;;
13590;SDS011;6866;50.778;7.206;2023-04-02T09:37:47;2.65;;;1.30;;
13590;SDS011;6866;50.778;7.206;2023-04-02T09:41:18;2.63;;;1.40;;
13590;SDS011;6866;50.778;7.206;2023-04-02T09:43:19;3.42;;;2.10;;
13590;SDS011;6866;50.778;7.206;2023-04-02T09:51:15;2.58;;;1.58;;
13590;SDS011;6866;50.778;7.206;2023-04-02T09:56:26;2.45;;;1.50;;
13590;SDS011;6866;50.778;7.206;2023-04-02T09:59:10;2.55;;;1.50;;
13590;SDS011;6866;50.778;7.206;2023-04-02T10:01:58;2.70;;;1.60;;
13590;SDS011;6866;50.778;7.206;2023-04-02T10:04:38;2.92;;;1.77;;
13590;SDS011;6866;50.778;7.206;2023-04-02T10:07:09;2.83;;;1.70;;
13590;SDS011;6866;50.778;7.206;2023-04-02T10:09:59;5.45;;;3.83;;
13590;SDS011;6866;50.778;7.206;2023-04-02T10:12:42;6.30;;;4.55;;
13590;SDS011;6866;50.778;7.206;2023-04-02T10:15:17;6.13;;;4.25;;
13590;SDS011;6866;50.778;7.206;2023-04-02T10:17:51;5.57;;;3.80;;
13590;SDS011;6866;50.778;7.206;2023-04-02T10:20:25;5.05;;;2.20;;
13590;SDS011;6866;50.778;7.206;2023-04-02T10:22:52;5.85;;;2.40;;
13590;SDS011;6866;50.778;7.206;2023-04-02T10:25:18;3.10;;;2.00;;
13590;SDS011;6866;50.778;7.206;2023-04-02T10:27:50;3.20;;;1.93;;
13590;SDS011;6866;50.778;7.206;2023-04-02T10:30:59;2.90;;;1.90;;
13590;SDS011;6866;50.778;7.206;2023-04-02T10:33:36;3.53;;;2.05;;
13590;SDS011;6866;50.778;7.206;2023-04-02T10:38:41;4.35;;;2.08;;
13590;SDS011;6866;50.778;7.206;2023-04-02T10:41:19;3.30;;;1.85;;
13590;SDS011;6866;50.778;7.206;2023-04-02T10:44:10;3.95;;;1.70;;
13590;SDS011;6866;50.778;7.206;2023-04-02T10:54:47;3.55;;;1.80;;
13590;SDS011;6866;50.778;7.206;2023-04-02T10:59:58;3.88;;;2.10;;
13590;SDS011;6866;50.778;7.206;2023-04-02T11:02:51;4.20;;;2.13;;
13590;SDS011;6866;50.778;7.206;2023-04-02T11:05:52;3.88;;;2.00;;
13590;SDS011;6866;50.778;7.206;2023-04-02T11:08:22;3.97;;;1.90;;
13590;SDS011;6866;50.778;7.206;2023-04-02T11:10:56;3.55;;;1.90;;
13590;SDS011;6866;50.778;7.206;2023-04-02T11:13:41;4.05;;;1.83;;
13590;SDS011;6866;50.778;7.206;2023-04-02T11:16:28;3.10;;;2.00;;
13590;SDS011;6866;50.778;7.206;2023-04-02T11:26:50;3.00;;;1.88;;
13590;SDS011;6866;50.778;7.206;2023-04-02T11:29:24;2.55;;;1.55;;
13590;SDS011;6866;50.778;7.206;2023-04-02T11:35:02;3.38;;;1.92;;
13590;SDS011;6866;50.778;7.206;2023-04-02T11:37:49;3.30;;;1.90;;
13590;SDS011;6866;50.778;7.206;2023-04-02T11:42:45;3.40;;;1.70;;
13590;SDS011;6866;50.778;7.206;2023-04-02T11:50:28;3.83;;;1.90;;
13590;SDS011;6866;50.778;7.206;2023-04-02T11:55:37;3.22;;;1.70;;
13590;SDS011;6866;50.778;7.206;2023-04-02T12:01:38;3.42;;;1.80;;
13590;SDS011;6866;50.778;7.206;2023-04-02T12:06:52;2.95;;;1.70;;
13590;SDS011;6866;50.778;7.206;2023-04-02T12:09:33;3.47;;;1.83;;
13590;SDS011;6866;50.778;7.206;2023-04-02T12:12:24;3.45;;;1.85;;
13590;SDS011;6866;50.778;7.206;2023-04-02T12:14:55;3.45;;;1.65;;
13590;SDS011;6866;50.778;7.206;2023-04-02T12:17:29;4.43;;;1.75;;
13590;SDS011;6866;50.778;7.206;2023-04-02T12:20:02;4.00;;;1.90;;
13590;SDS011;6866;50.778;7.206;2023-04-02T12:22:33;2.50;;;1.55;;
13590;SDS011;6866;50.778;7.206;2023-04-02T12:25:25;2.80;;;1.60;;
13590;SDS011;6866;50.778;7.206;2023-04-02T12:28:03;3.20;;;1.83;;
13590;SDS011;6866;50.778;7.206;2023-04-02T12:30:38;3.47;;;1.60;;
13590;SDS011;6866;50.778;7.206;2023-04-02T12:35:48;4.78;;;1.83;;
13590;SDS011;6866;50.778;7.206;2023-04-02T12:38:19;3.93;;;1.90;;
13590;SDS011;6866;50.778;7.206;2023-04-02T12:40:56;3.40;;;1.83;;
13590;SDS011;6866;50.778;7.206;2023-04-02T12:43:27;3.63;;;2.10;;
13590;SDS011;6866;50.778;7.206;2023-04-02T12:45:56;3.47;;;1.83;;
13590;SDS011;6866;50.778;7.206;2023-04-02T12:48:23;4.50;;;2.08;;
13590;SDS011;6866;50.778;7.206;2023-04-02T12:50:51;4.88;;;2.20;;
13590;SDS011;6866;50.778;7.206;2023-04-02T12:53:39;3.60;;;2.15;;
13590;SDS011;6866;50.778;7.206;2023-04-02T12:56:05;5.60;;;2.90;;
13590;SDS011;6866;50.778;7.206;2023-04-02T12:58:35;4.78;;;3.05;;
13590;SDS011;6866;50.778;7.206;2023-04-02T13:06:27;3.42;;;1.75;;
13590;SDS011;6866;50.778;7.206;2023-04-02T13:08:54;3.55;;;1.60;;
13590;SDS011;6866;50.778;7.206;2023-04-02T13:11:21;3.28;;;1.88;;
13590;SDS011;6866;50.778;7.206;2023-04-02T13:13:47;3.40;;;1.77;;
13590;SDS011;6866;50.778;7.206;2023-04-02T13:18:40;2.97;;;1.60;;
13590;SDS011;6866;50.778;7.206;2023-04-02T13:23:44;3.60;;;1.60;;
13590;SDS011;6866;50.778;7.206;2023-04-02T13:26:14;3.22;;;1.60;;
13590;SDS011;6866;50.778;7.206;2023-04-02T13:28:53;3.28;;;1.65;;
13590;SDS011;6866;50.778;7.206;2023-04-02T13:31:31;2.20;;;1.20;;
13590;SDS011;6866;50.778;7.206;2023-04-02T13:33:57;4.97;;;1.30;;
13590;SDS011;6866;50.778;7.206;2023-04-02T13:36:23;2.17;;;1.17;;
13590;SDS011;6866;50.778;7.206;2023-04-02T13:38:49;2.00;;;1.10;;
13590;SDS011;6866;50.778;7.206;2023-04-02T13:41:23;3.00;;;1.20;;
13590;SDS011;6866;50.778;7.206;2023-04-02T13:44:02;2.13;;;1.20;;
13590;SDS011;6866;50.778;7.206;2023-04-02T13:46:28;1.95;;;1.15;;
13590;SDS011;6866;50.778;7.206;2023-04-02T13:48:56;4.15;;;2.13;;
13590;SDS011;6866;50.778;7.206;2023-04-02T13:51:40;5.75;;;2.50;;
13590;SDS011;6866;50.778;7.206;2023-04-02T13:54:59;4.97;;;2.50;;
13590;SDS011;6866;50.778;7.206;2023-04-02T13:57:19;4.90;;;2.50;;
13590;SDS011;6866;50.778;7.206;2023-04-02T13:59:45;4.22;;;2.90;;
13590;SDS011;6866;50.778;7.206;2023-04-02T14:02:12;5.80;;;3.05;;
13590;SDS011;6866;50.778;7.206;2023-04-02T14:04:42;5.00;;;2.88;;
13590;SDS011;6866;50.778;7.206;2023-04-02T14:09:59;4.88;;;2.50;;
13590;SDS011;6866;50.778;7.206;2023-04-02T14:15:26;4.70;;;2.17;;
13590;SDS011;6866;50.778;7.206;2023-04-02T14:18:09;8.35;;;3.15;;
13590;SDS011;6866;50.778;7.206;2023-04-02T14:23:51;7.25;;;3.55;;
13590;SDS011;6866;50.778;7.206;2023-04-02T14:26:40;7.75;;;3.28;;
13590;SDS011;6866;50.778;7.206;2023-04-02T14:29:21;5.10;;;3.10;;
13590;SDS011;6866;50.778;7.206;2023-04-02T14:32:09;8.35;;;3.00;;
13590;SDS011;6866;50.778;7.206;2023-04-02T14:43:10;7.45;;;2.60;;
13590;SDS011;6866;50.778;7.206;2023-04-02T14:46:04;5.90;;;2.60;;
13590;SDS011;6866;50.778;7.206;2023-04-02T14:48:35;7.10;;;2.55;;
13590;SDS011;6866;50.778;7.206;2023-04-02T14:53:57;5.05;;;2.78;;
13590;SDS011;6866;50.778;7.206;2023-04-02T14:56:38;6.07;;;2.40;;
13590;SDS011;6866;50.778;7.206;2023-04-02T14:59:20;7.85;;;2.35;;
13590;SDS011;6866;50.778;7.206;2023-04-02T15:04:34;6.25;;;2.13;;
13590;SDS011;6866;50.778;7.206;2023-04-02T15:07:04;5.03;;;1.90;;
13590;SDS011;6866;50.778;7.206;2023-04-02T15:09:41;4.28;;;1.73;;
13590;SDS011;6866;50.778;7.206;2023-04-02T15:14:47;3.95;;;1.60;;
13590;SDS011;6866;50.778;7.206;2023-04-02T15:17:18;4.93;;;1.70;;
13590;SDS011;6866;50.778;7.206;2023-04-02T15:19:45;7.38;;;1.77;;
13590;SDS011;6866;50.778;7.206;2023-04-02T15:30:34;5.35;;;1.50;;
13590;SDS011;6866;50.778;7.206;2023-04-02T15:38:43;5.15;;;1.15;;
13590;SDS011;6866;50.778;7.206;2023-04-02T15:41:24;4.10;;;1.48;;
13590;SDS011;6866;50.778;7.206;2023-04-02T15:43:56;3.47;;;1.25;;
13590;SDS011;6866;50.778;7.206;2023-04-02T15:55:16;4.28;;;1.30;;
13590;SDS011;6866;50.778;7.206;2023-04-02T16:01:22;4.63;;;1.30;;
13590;SDS011;6866;50.778;7.206;2023-04-02T16:07:13;2.78;;;1.20;;
13590;SDS011;6866;50.778;7.206;2023-04-02T16:09:47;4.43;;;1.42;;
13590;SDS011;6866;50.778;7.206;2023-04-02T16:12:28;2.63;;;1.10;;
13590;SDS011;6866;50.778;7.206;2023-04-02T16:14:58;5.35;;;1.73;;
13590;SDS011;6866;50.778;7.206;2023-04-02T16:17:35;4.38;;;1.30;;
13590;SDS011;6866;50.778;7.206;2023-04-02T16:20:13;2.55;;;1.30;;
13590;SDS011;6866;50.778;7.206;2023-04-02T16:22:40;3.83;;;1.30;;
13590;SDS011;6866;50.778;7.206;2023-04-02T16:25:17;2.65;;;1.23;;
13590;SDS011;6866;50.778;7.206;2023-04-02T16:28:32;4.85;;;1.73;;
13590;SDS011;6866;50.778;7.206;2023-04-02T16:30:49;3.15;;;1.40;;
13590;SDS011;6866;50.778;7.206;2023-04-02T16:33:34;3.03;;;1.30;;
13590;SDS011;6866;50.778;7.206;2023-04-02T16:36:21;2.65;;;1.23;;
13590;SDS011;6866;50.778;7.206;2023-04-02T16:50:29;3.10;;;1.10;;
13590;SDS011;6866;50.778;7.206;2023-04-02T17:01:30;3.65;;;1.33;;
13590;SDS011;6866;50.778;7.206;2023-04-02T17:09:32;3.20;;;1.33;;
13590;SDS011;6866;50.778;7.206;2023-04-02T17:15:18;2.65;;;1.25;;
13590;SDS011;6866;50.778;7.206;2023-04-02T17:17:38;3.05;;;1.20;;
13590;SDS011;6866;50.778;7.206;2023-04-02T17:20:05;3.35;;;1.50;;
13590;SDS011;6866;50.778;7.206;2023-04-02T17:22:46;4.93;;;1.40;;
13590;SDS011;6866;50.778;7.206;2023-04-02T17:25:25;3.63;;;1.42;;
13590;SDS011;6866;50.778;7.206;2023-04-02T17:27:56;4.65;;;1.58;;
13590;SDS011;6866;50.778;7.206;2023-04-02T17:30:41;4.25;;;1.40;;
13590;SDS011;6866;50.778;7.206;2023-04-02T17:33:13;5.15;;;1.75;;
13590;SDS011;6866;50.778;7.206;2023-04-02T17:35:52;3.92;;;1.48;;
13590;SDS011;6866;50.778;7.206;2023-04-02T17:38:39;5.20;;;1.70;;
13590;SDS011;6866;50.778;7.206;2023-04-02T17:47:10;4.50;;;1.40;;
13590;SDS011;6866;50.778;7.206;2023-04-02T17:55:13;3.53;;;1.40;;
13590;SDS011;6866;50.778;7.206;2023-04-02T17:58:07;6.05;;;1.45;;
13590;SDS011;6866;50.778;7.206;2023-04-02T18:03:36;2.58;;;1.30;;
13590;SDS011;6866;50.778;7.206;2023-04-02T18:06:25;5.72;;;1.35;;
13590;SDS011;6866;50.778;7.206;2023-04-02T18:12:13;4.00;;;1.50;;
13590;SDS011;6866;50.778;7.206;2023-04-02T18:25:34;3.20;;;1.92;;
13590;SDS011;6866;50.778;7.206;2023-04-02T18:28:22;2.95;;;1.20;;
13590;SDS011;6866;50.778;7.206;2023-04-02T18:31:04;3.83;;;1.48;;
13590;SDS011;6866;50.778;7.206;2023-04-02T18:44:06;4.85;;;1.40;;
13590;SDS011;6866;50.778;7.206;2023-04-02T18:49:27;3.83;;;1.40;;
13590;SDS011;6866;50.778;7.206;2023-04-02T18:52:14;3.83;;;1.55;;
13590;SDS011;6866;50.778;7.206;2023-04-02T18:54:51;4.22;;;1.60;;
13590;SDS011;6866;50.778;7.206;2023-04-02T18:57:31;4.55;;;1.50;;
13590;SDS011;6866;50.778;7.206;2023-04-02T19:02:34;5.65;;;1.55;;
13590;SDS011;6866;50.778;7.206;2023-04-02T19:07:41;6.47;;;1.50;;
13590;SDS011;6866;50.778;7.206;2023-04-02T19:10:26;6.03;;;1.60;;
13590;SDS011;6866;50.778;7.206;2023-04-02T19:12:58;4.03;;;1.40;;
13590;SDS011;6866;50.778;7.206;2023-04-02T19:18:56;5.97;;;1.60;;
13590;SDS011;6866;50.778;7.206;2023-04-02T19:21:55;4.78;;;1.25;;
13590;SDS011;6866;50.778;7.206;2023-04-02T19:25:04;5.85;;;1.70;;
13590;SDS011;6866;50.778;7.206;2023-04-02T19:31:27;4.60;;;1.50;;
13590;SDS011;6866;50.778;7.206;2023-04-02T19:33:56;4.15;;;1.70;;
13590;SDS011;6866;50.778;7.206;2023-04-02T19:42:29;4.90;;;1.58;;
13590;SDS011;6866;50.778;7.206;2023-04-02T19:45:14;3.70;;;1.20;;
13590;SDS011;6866;50.778;7.206;2023-04-02T19:47:50;5.00;;;1.50;;
13590;SDS011;6866;50.778;7.206;2023-04-02T19:50:15;5.05;;;1.63;;
13590;SDS011;6866;50.778;7.206;2023-04-02T19:52:41;3.80;;;1.63;;
13590;SDS011;6866;50.778;7.206;2023-04-02T19:55:07;5.55;;;1.70;;
13590;SDS011;6866;50.778;7.206;2023-04-02T19:57:33;6.13;;;1.33;;
13590;SDS011;6866;50.778;7.206;2023-04-02T19:59:58;3.22;;;1.38;;
13590;SDS011;6866;50.778;7.206;2023-04-02T20:02:24;4.22;;;1.50;;
13590;SDS011;6866;50.778;7.206;2023-04-02T20:04:50;3.55;;;1.45;;
13590;SDS011;6866;50.778;7.206;2023-04-02T20:07:15;6.13;;;1.27;;
13590;SDS011;6866;50.778;7.206;2023-04-02T20:09:41;3.65;;;1.33;;
13590;SDS011;6866;50.778;7.206;2023-04-02T20:12:06;4.05;;;1.20;;
13590;SDS011;6866;50.778;7.206;2023-04-02T20:14:32;3.63;;;1.30;;
13590;SDS011;6866;50.778;7.206;2023-04-02T20:16:57;3.90;;;1.20;;
13590;SDS011;6866;50.778;7.206;2023-04-02T20:19:23;3.70;;;1.20;;
13590;SDS011;6866;50.778;7.206;2023-04-02T20:24:14;3.17;;;1.38;;
13590;SDS011;6866;50.778;7.206;2023-04-02T20:26:40;3.83;;;1.50;;
13590;SDS011;6866;50.778;7.206;2023-04-02T20:29:05;3.92;;;1.50;;
13590;SDS011;6866;50.778;7.206;2023-04-02T20:31:31;6.20;;;1.42;;
13590;SDS011;6866;50.778;7.206;2023-04-02T20:33:57;4.25;;;1.40;;